Time;durP1;ratioP1;P1;durP2;ratioP2;P2;SDS_P1;SDS_P2;PMS_P1;PMS_P2;Temp;Humidity;BMP_temperature;BMP_pressure;BME280_temperature;BME280_humidity;BME280_pressure;Samples;Min_cycle;Max_cycle;Signal;HPM_P1;HPM_P2
2022/09/14 00:01:42;;;;;;;5.82;2.38;;;14.30;99.90;;;;;;4893614;29;20105;-63
2022/09/14 00:04:18;;;;;;;7.32;2.92;;;14.30;99.90;;;;;;4876377;29;20089;-62
2022/09/14 00:06:45;;;;;;;7.85;2.60;;;14.40;99.90;;;;;;4876410;29;20060;-63
2022/09/14 00:09:15;;;;;;;7.82;2.60;;;14.30;99.90;;;;;;4871248;29;20468;-62
2022/09/14 00:11:41;;;;;;;4.78;2.63;;;14.30;99.90;;;;;;4888184;29;25974;-63
2022/09/14 00:14:07;;;;;;;7.82;2.60;;;14.30;99.90;;;;;;4876646;29;20087;-63
2022/09/14 00:16:38;;;;;;;7.55;3.05;;;14.30;99.90;;;;;;4879234;29;20101;-62
2022/09/14 00:19:07;;;;;;;9.40;2.50;;;14.40;99.90;;;;;;4880474;29;20123;-62
2022/09/14 00:21:38;;;;;;;5.05;2.75;;;14.30;99.90;;;;;;4881963;29;20058;-62
2022/09/14 00:24:05;;;;;;;6.32;2.58;;;14.30;99.90;;;;;;4896087;29;20484;-62
2022/09/14 00:26:32;;;;;;;6.45;3.38;;;14.40;99.90;;;;;;4883727;29;20041;-62
2022/09/14 00:28:59;;;;;;;6.95;3.03;;;14.30;99.90;;;;;;4895653;29;20522;-62
2022/09/14 00:31:25;;;;;;;8.13;2.92;;;14.30;99.90;;;;;;4876679;29;20041;-62
2022/09/14 00:33:52;;;;;;;5.80;2.42;;;14.30;99.90;;;;;;4891813;29;20080;-63
2022/09/14 00:36:22;;;;;;;8.77;2.47;;;14.30;99.90;;;;;;4877818;29;20131;-63
2022/09/14 00:38:48;;;;;;;7.82;2.60;;;14.30;99.90;;;;;;4876701;29;20132;-63
2022/09/14 00:41:18;;;;;;;5.25;2.25;;;14.30;99.90;;;;;;4879273;29;20041;-63
2022/09/14 00:43:56;;;;;;;6.90;2.47;;;14.30;99.90;;;;;;4876415;29;20123;-62
2022/09/14 00:46:23;;;;;;;5.47;2.38;;;14.30;99.90;;;;;;4889884;29;20500;-62
2022/09/14 00:48:49;;;;;;;10.70;2.60;;;14.30;99.90;;;;;;4888068;29;20064;-62
2022/09/14 00:51:17;;;;;;;5.20;2.50;;;14.30;99.90;;;;;;4878738;29;20711;-62
2022/09/14 00:53:43;;;;;;;8.05;2.83;;;14.30;99.90;;;;;;4876015;29;20202;-62
2022/09/14 00:56:09;;;;;;;6.53;2.72;;;14.20;99.90;;;;;;4878666;29;20076;-63
2022/09/14 00:58:35;;;;;;;7.78;2.80;;;14.20;99.90;;;;;;4877346;29;20103;-63
2022/09/14 01:01:01;;;;;;;5.53;2.67;;;14.20;99.90;;;;;;4876973;29;20041;-62
2022/09/14 01:03:27;;;;;;;7.00;2.85;;;14.20;99.90;;;;;;4878297;29;20099;-63
2022/09/14 01:06:32;;;;;;;6.72;2.80;;;14.20;99.90;;;;;;4890847;29;20109;-62
2022/09/14 01:09:34;;;;;;;9.32;2.97;;;14.20;99.90;;;;;;4878868;29;20496;-62
2022/09/14 01:12:29;;;;;;;7.78;2.95;;;14.20;99.90;;;;;;4875531;29;20057;-62
2022/09/14 01:15:07;;;;;;;7.82;2.90;;;14.20;99.90;;;;;;4842088;29;20060;-63
2022/09/14 01:17:51;;;;;;;5.88;2.65;;;14.20;99.90;;;;;;4875357;29;20045;-62
2022/09/14 01:20:34;;;;;;;6.72;2.95;;;14.20;99.90;;;;;;4880230;29;20083;-62
2022/09/14 01:23:46;;;;;;;7.07;2.80;;;14.20;99.90;;;;;;4873553;29;20053;-63
2022/09/14 01:26:31;;;;;;;6.63;2.60;;;14.20;99.90;;;;;;4858358;29;20056;-63
2022/09/14 01:29:17;;;;;;;8.57;2.97;;;14.20;99.90;;;;;;4878470;29;20056;-61
2022/09/14 01:31:52;;;;;;;6.65;2.92;;;14.20;99.90;;;;;;4876833;29;20133;-62
2022/09/14 01:34:47;;;;;;;6.03;2.80;;;14.30;99.90;;;;;;4875753;29;20049;-62
2022/09/14 01:37:26;;;;;;;8.77;3.05;;;14.30;99.90;;;;;;4876439;29;20041;-62
2022/09/14 01:39:57;;;;;;;3.83;2.53;;;14.30;99.90;;;;;;4875236;29;20073;-62
2022/09/14 01:42:26;;;;;;;4.82;3.00;;;14.30;99.90;;;;;;4878117;29;20044;-62
2022/09/14 01:44:59;;;;;;;7.82;3.03;;;14.30;99.90;;;;;;4875882;29;20049;-61
2022/09/14 01:47:50;;;;;;;8.32;3.42;;;14.40;99.90;;;;;;4876559;29;20053;-62
2022/09/14 01:50:23;;;;;;;6.07;3.30;;;14.30;99.90;;;;;;4879788;29;20052;-62
2022/09/14 01:52:51;;;;;;;;;;;14.40;99.90;;;;;;4875352;29;20048;-62
2022/09/14 01:55:31;;;;;;;9.05;3.10;;;14.40;99.90;;;;;;4878134;29;19931;-62
2022/09/14 01:57:57;;;;;;;6.72;3.20;;;14.40;99.90;;;;;;4878867;29;20139;-62
2022/09/14 02:00:23;;;;;;;7.40;3.33;;;14.40;99.90;;;;;;4879433;29;20049;-62
2022/09/14 02:03:01;;;;;;;4.28;2.80;;;14.40;99.90;;;;;;4877921;29;20495;-62
2022/09/14 02:05:31;;;;;;;7.43;3.40;;;14.40;99.90;;;;;;4881874;29;20063;-62
2022/09/14 02:07:57;;;;;;;5.72;3.10;;;14.40;99.90;;;;;;4890445;29;20049;-63
2022/09/14 02:10:23;;;;;;;5.45;3.20;;;14.40;99.90;;;;;;4876795;29;20069;-62
2022/09/14 02:12:52;;;;;;;6.32;3.30;;;14.40;99.90;;;;;;4876670;29;20063;-62
2022/09/14 02:15:18;;;;;;;5.15;3.08;;;14.50;99.90;;;;;;4878219;29;20135;-63
2022/09/14 02:17:45;;;;;;;6.47;2.63;;;14.40;99.90;;;;;;4876950;29;20041;-62
2022/09/14 02:20:32;;;;;;;7.22;2.80;;;14.50;99.90;;;;;;4878115;29;20060;-62
2022/09/14 02:22:58;;;;;;;5.65;2.90;;;14.50;99.90;;;;;;4878992;29;20052;-62
2022/09/14 02:25:24;;;;;;;6.22;3.00;;;14.50;99.90;;;;;;4876504;29;20087;-65
2022/09/14 02:27:51;;;;;;;7.78;2.85;;;14.50;99.90;;;;;;4875090;29;20091;-62
2022/09/14 02:30:19;;;;;;;7.25;2.80;;;14.50;99.90;;;;;;4877966;29;20515;-62
2022/09/14 02:33:30;;;;;;;7.20;2.58;;;14.50;99.90;;;;;;4875197;29;20694;-62
2022/09/14 02:36:01;;;;;;;8.73;3.50;;;14.50;99.90;;;;;;4865627;29;20064;-62
2022/09/14 02:38:49;;;;;;;5.90;2.92;;;14.50;99.90;;;;;;4874774;29;21183;-61
2022/09/14 02:41:30;;;;;;;8.95;3.00;;;14.50;99.90;;;;;;4874542;29;20063;-62
2022/09/14 02:44:09;;;;;;;11.32;3.75;;;14.50;99.90;;;;;;4875078;29;20048;-62
2022/09/14 02:46:48;;;;;;;7.00;3.20;;;14.50;99.90;;;;;;4878831;29;20151;-62
2022/09/14 02:49:22;;;;;;;5.63;3.20;;;14.50;99.90;;;;;;4876966;29;20479;-62
2022/09/14 02:52:01;;;;;;;5.80;2.85;;;14.50;99.90;;;;;;4876761;29;21083;-62
2022/09/14 02:54:51;;;;;;;7.22;2.90;;;14.50;99.90;;;;;;4877479;29;20051;-62
2022/09/14 02:57:16;;;;;;;5.63;2.88;;;14.50;99.90;;;;;;4896479;29;20500;-62
2022/09/14 02:59:42;;;;;;;4.57;2.92;;;14.50;99.90;;;;;;4880441;29;20059;-62
2022/09/14 03:02:08;;;;;;;5.82;3.05;;;14.50;99.90;;;;;;4887781;29;20104;-62
2022/09/14 03:04:34;;;;;;;8.40;3.53;;;14.50;99.90;;;;;;4883236;29;20163;-62
2022/09/14 03:07:00;;;;;;;9.52;3.53;;;14.50;99.90;;;;;;4895527;29;20052;-62
2022/09/14 03:09:25;;;;;;;5.88;3.30;;;14.50;99.90;;;;;;4886190;29;20147;-63
2022/09/14 03:11:51;;;;;;;5.18;2.88;;;14.50;99.90;;;;;;4884524;29;20056;-62
2022/09/14 03:14:17;;;;;;;7.43;3.25;;;14.50;99.90;;;;;;4884992;29;20048;-62
2022/09/14 03:16:43;;;;;;;7.65;3.25;;;14.50;99.90;;;;;;4881980;29;20040;-62
2022/09/14 03:19:11;;;;;;;6.38;3.53;;;14.50;99.90;;;;;;4875724;29;20523;-62
2022/09/14 03:21:38;;;;;;;6.93;3.60;;;14.50;99.90;;;;;;4883497;29;20503;-62
2022/09/14 03:24:04;;;;;;;5.40;3.30;;;14.50;99.90;;;;;;4882326;29;20100;-62
2022/09/14 03:26:30;;;;;;;7.43;3.70;;;14.50;99.90;;;;;;4883655;29;20476;-62
2022/09/14 03:28:57;;;;;;;8.40;3.83;;;14.50;99.90;;;;;;4896065;29;20048;-62
2022/09/14 03:31:24;;;;;;;8.20;3.80;;;14.50;99.90;;;;;;4886809;29;20053;-62
2022/09/14 03:33:55;;;;;;;5.47;3.30;;;14.50;99.90;;;;;;4884039;29;20052;-62
2022/09/14 03:36:22;;;;;;;10.23;3.60;;;14.50;99.90;;;;;;4885763;29;20053;-62
2022/09/14 03:38:51;;;;;;;8.38;3.40;;;14.50;99.90;;;;;;4888047;29;20048;-62
2022/09/14 03:41:18;;;;;;;8.48;4.47;;;14.50;99.90;;;;;;4887364;29;20465;-62
2022/09/14 03:43:44;;;;;;;6.53;3.47;;;14.50;99.90;;;;;;4884352;29;20115;-62
2022/09/14 03:46:15;;;;;;;6.65;3.60;;;14.50;99.90;;;;;;4882036;29;20123;-62
2022/09/14 03:48:41;;;;;;;9.07;3.70;;;14.50;99.90;;;;;;4882889;29;20140;-62
2022/09/14 03:51:10;;;;;;;14.20;3.80;;;14.50;99.90;;;;;;4883062;29;20048;-62
2022/09/14 03:53:36;;;;;;;9.20;3.60;;;14.50;99.90;;;;;;4882500;29;21247;-62
2022/09/14 03:56:11;;;;;;;12.40;3.83;;;14.50;99.90;;;;;;4885402;29;20049;-62
2022/09/14 03:58:37;;;;;;;10.02;3.65;;;14.50;99.90;;;;;;4881001;29;20508;-62
2022/09/14 04:01:13;;;;;;;7.63;3.63;;;14.60;99.90;;;;;;4883643;29;20048;-62
2022/09/14 04:03:39;;;;;;;9.65;3.85;;;14.60;99.90;;;;;;4881563;29;20052;-61
2022/09/14 04:06:06;;;;;;;8.23;3.45;;;14.60;99.90;;;;;;4881605;29;20421;-62
2022/09/14 04:08:37;;;;;;;5.40;3.25;;;14.60;99.90;;;;;;4878329;29;20044;-62
2022/09/14 04:11:21;;;;;;;6.78;3.47;;;14.60;99.90;;;;;;4880943;29;20048;-62
2022/09/14 04:13:47;;;;;;;5.25;3.17;;;14.60;99.90;;;;;;4875898;29;20056;-62
2022/09/14 04:16:14;;;;;;;8.65;3.10;;;14.60;99.90;;;;;;4881577;29;20056;-62
2022/09/14 04:18:40;;;;;;;7.22;3.33;;;14.60;99.90;;;;;;4871731;29;20052;-61
2022/09/14 04:21:09;;;;;;;5.75;3.30;;;14.70;99.90;;;;;;4880096;29;20475;-62
2022/09/14 04:23:35;;;;;;;10.38;3.42;;;14.70;99.90;;;;;;4878515;29;20116;-61
2022/09/14 04:26:12;;;;;;;8.55;3.45;;;14.70;99.90;;;;;;4879129;29;20101;-62
2022/09/14 04:28:39;;;;;;;7.03;3.50;;;14.70;99.90;;;;;;4880622;29;20053;-62
2022/09/14 04:31:05;;;;;;;7.35;2.85;;;14.70;99.90;;;;;;4883685;29;20049;-62
2022/09/14 04:33:33;;;;;;;4.82;3.20;;;14.70;99.90;;;;;;4878661;29;20116;-62
2022/09/14 04:36:02;;;;;;;8.48;3.40;;;14.70;99.90;;;;;;4892672;29;20066;-62
2022/09/14 04:38:29;;;;;;;5.72;3.25;;;14.70;99.90;;;;;;4880336;29;20060;-62
2022/09/14 04:40:56;;;;;;;8.73;2.97;;;14.70;99.90;;;;;;4880704;29;20048;-62
2022/09/14 04:43:23;;;;;;;5.53;3.10;;;14.70;99.90;;;;;;4878886;29;20087;-62
2022/09/14 04:45:49;;;;;;;4.40;2.85;;;14.70;99.90;;;;;;4882543;29;20522;-62
2022/09/14 04:48:14;;;;;;;9.55;2.85;;;14.70;99.90;;;;;;4878229;29;20041;-62
2022/09/14 04:50:40;;;;;;;8.70;2.97;;;14.80;99.90;;;;;;4879774;29;20051;-62
2022/09/14 04:53:06;;;;;;;9.68;3.03;;;14.80;99.90;;;;;;4890408;29;20048;-62
2022/09/14 04:55:32;;;;;;;7.45;3.40;;;14.80;99.90;;;;;;4872353;29;20124;-61
2022/09/14 04:57:58;;;;;;;6.85;3.42;;;14.80;99.90;;;;;;4879024;29;20060;-62
2022/09/14 05:00:24;;;;;;;9.20;3.40;;;14.80;99.90;;;;;;4883030;29;20128;-62
2022/09/14 05:02:49;;;;;;;7.50;3.50;;;14.90;99.90;;;;;;4877004;29;20484;-62
2022/09/14 05:05:15;;;;;;;6.40;2.97;;;14.90;99.90;;;;;;4871832;29;20543;-62
2022/09/14 05:07:41;;;;;;;4.60;2.85;;;14.90;99.90;;;;;;4876881;29;20108;-64
2022/09/14 05:10:07;;;;;;;6.47;3.28;;;14.90;99.90;;;;;;4878774;29;20547;-62
2022/09/14 05:12:33;;;;;;;6.05;3.00;;;14.90;99.90;;;;;;4879370;29;20068;-62
2022/09/14 05:14:59;;;;;;;5.75;2.70;;;14.90;99.90;;;;;;4876970;29;20123;-62
2022/09/14 05:17:25;;;;;;;7.15;3.03;;;14.80;99.90;;;;;;4872549;29;20053;-62
2022/09/14 05:19:50;;;;;;;6.32;3.00;;;14.90;99.90;;;;;;4874875;29;20048;-62
2022/09/14 05:22:16;;;;;;;6.68;2.80;;;14.90;99.90;;;;;;4878712;29;20202;-62
2022/09/14 05:24:42;;;;;;;7.88;3.03;;;14.80;99.90;;;;;;4864480;29;20060;-62
2022/09/14 05:27:08;;;;;;;3.83;2.67;;;14.80;99.90;;;;;;4876921;29;20056;-61
2022/09/14 05:29:33;;;;;;;5.18;2.60;;;14.80;99.90;;;;;;4876144;29;20044;-62
2022/09/14 05:32:00;;;;;;;5.72;2.97;;;14.80;99.90;;;;;;4876371;29;20080;-62
2022/09/14 05:34:26;;;;;;;7.20;2.92;;;14.80;99.90;;;;;;4878618;29;20135;-61
2022/09/14 05:36:52;;;;;;;4.82;2.47;;;14.90;99.90;;;;;;4879009;29;20056;-62
2022/09/14 05:39:18;;;;;;;5.63;2.50;;;14.90;99.90;;;;;;4878185;29;20120;-62
2022/09/14 05:41:44;;;;;;;5.00;2.70;;;14.90;99.90;;;;;;4879110;29;20139;-63
2022/09/14 05:44:09;;;;;;;7.00;2.90;;;14.90;99.90;;;;;;4875630;29;20052;-63
2022/09/14 05:46:35;;;;;;;7.57;2.85;;;14.90;99.90;;;;;;4876404;29;20499;-62
2022/09/14 05:49:02;;;;;;;4.20;2.97;;;14.90;99.90;;;;;;4880865;29;20056;-62
2022/09/14 05:51:28;;;;;;;8.48;3.58;;;14.90;99.90;;;;;;4880082;29;20132;-62
2022/09/14 05:53:56;;;;;;;4.72;3.20;;;14.90;99.90;;;;;;4872508;29;20059;-62
2022/09/14 05:56:24;;;;;;;7.35;2.90;;;14.90;99.90;;;;;;4879943;29;20076;-62
2022/09/14 05:58:50;;;;;;;5.30;2.90;;;14.90;99.90;;;;;;4884192;29;20080;-62
2022/09/14 06:01:17;;;;;;;7.82;3.17;;;14.90;99.90;;;;;;4876375;29;20049;-62
2022/09/14 06:03:44;;;;;;;5.38;2.90;;;14.90;99.90;;;;;;4877966;29;20096;-62
2022/09/14 06:06:11;;;;;;;6.28;2.90;;;15.00;99.90;;;;;;4881270;29;20064;-62
2022/09/14 06:08:38;;;;;;;8.80;2.72;;;15.00;99.90;;;;;;4879144;29;20052;-62
2022/09/14 06:11:10;;;;;;;5.00;2.65;;;15.00;99.90;;;;;;4873016;29;20447;-62
2022/09/14 06:13:36;;;;;;;4.35;2.80;;;15.00;99.90;;;;;;4859973;29;20045;-62
2022/09/14 06:16:04;;;;;;;7.00;2.80;;;15.10;99.90;;;;;;4880455;29;20064;-62
2022/09/14 06:18:32;;;;;;;5.78;2.42;;;15.10;99.90;;;;;;4883112;29;20132;-62
2022/09/14 06:20:58;;;;;;;5.57;2.90;;;15.10;99.90;;;;;;4880086;29;20048;-62
2022/09/14 06:23:26;;;;;;;5.07;2.72;;;15.20;99.90;;;;;;4877959;29;20403;-63
2022/09/14 06:25:54;;;;;;;6.80;2.60;;;15.20;99.90;;;;;;4882558;29;20090;-62
2022/09/14 06:28:20;;;;;;;6.60;2.97;;;15.30;99.90;;;;;;4882928;29;20044;-62
2022/09/14 06:30:46;;;;;;;4.75;2.45;;;15.30;99.90;;;;;;4887644;29;20096;-62
2022/09/14 06:33:11;;;;;;;8.30;2.17;;;15.30;99.90;;;;;;4896190;29;20112;-63
2022/09/14 06:35:37;;;;;;;5.32;2.40;;;15.40;99.90;;;;;;4864628;29;20080;-63
2022/09/14 06:38:03;;;;;;;5.93;2.40;;;15.40;99.90;;;;;;4894572;29;20082;-63
2022/09/14 06:40:29;;;;;;;3.50;2.50;;;15.40;99.90;;;;;;4880711;29;20495;-62
2022/09/14 06:42:57;;;;;;;4.60;2.35;;;15.40;99.90;;;;;;4881098;29;20457;-63
2022/09/14 06:45:23;;;;;;;6.50;2.50;;;15.50;99.90;;;;;;4883385;29;20061;-63
2022/09/14 06:47:48;;;;;;;6.47;2.50;;;15.50;99.90;;;;;;4878404;29;20556;-63
2022/09/14 06:50:14;;;;;;;7.47;2.60;;;15.60;99.90;;;;;;4878103;29;20421;-63
2022/09/14 06:52:40;;;;;;;4.40;2.80;;;15.60;99.90;;;;;;4879229;29;20048;-63
2022/09/14 06:55:06;;;;;;;4.07;2.30;;;15.70;99.90;;;;;;4870228;29;20568;-63
2022/09/14 06:57:32;;;;;;;5.90;2.13;;;15.70;99.90;;;;;;4881942;29;20136;-62
2022/09/14 06:59:58;;;;;;;3.67;2.35;;;15.80;99.90;;;;;;4880866;29;20107;-62
2022/09/14 07:02:24;;;;;;;6.40;2.42;;;15.80;99.90;;;;;;4884802;29;20044;-63
2022/09/14 07:04:49;;;;;;;6.75;3.05;;;15.90;99.90;;;;;;4880843;29;20381;-62
2022/09/14 07:07:15;;;;;;;8.60;2.80;;;15.90;99.90;;;;;;4883934;29;20540;-60
2022/09/14 07:09:41;;;;;;;6.18;2.65;;;16.00;99.90;;;;;;4883794;29;20551;-60
2022/09/14 07:12:08;;;;;;;8.63;2.40;;;16.00;99.90;;;;;;4878356;29;20445;-60
2022/09/14 07:14:35;;;;;;;4.50;2.50;;;16.10;99.90;;;;;;4878712;29;20049;-60
2022/09/14 07:17:01;;;;;;;5.50;2.72;;;16.10;99.90;;;;;;4880899;29;20116;-61
2022/09/14 07:19:27;;;;;;;4.97;2.10;;;16.20;99.90;;;;;;4879849;29;20053;-60
2022/09/14 07:21:53;;;;;;;6.43;2.58;;;16.30;99.90;;;;;;4882494;29;20515;-60
2022/09/14 07:24:19;;;;;;;4.07;2.40;;;16.30;99.90;;;;;;4883930;29;20606;-61
2022/09/14 07:26:45;;;;;;;5.72;2.60;;;16.30;99.90;;;;;;4889428;29;20052;-60
2022/09/14 07:29:14;;;;;;;7.30;2.17;;;16.40;99.90;;;;;;4880558;29;20060;-60
2022/09/14 07:31:49;;;;;;;7.78;2.38;;;16.40;99.90;;;;;;4881037;29;20043;-61
2022/09/14 07:34:15;;;;;;;9.48;2.80;;;16.50;99.90;;;;;;4881986;29;20045;-60
2022/09/14 07:36:41;;;;;;;9.40;2.28;;;16.50;99.90;;;;;;4880450;29;20049;-60
2022/09/14 07:39:11;;;;;;;5.30;2.33;;;16.60;99.90;;;;;;4881940;29;20492;-60
2022/09/14 07:41:37;;;;;;;10.43;3.33;;;16.60;99.90;;;;;;4881963;29;20083;-61
2022/09/14 07:44:05;;;;;;;4.18;2.13;;;16.70;99.90;;;;;;4882621;29;20116;-57
2022/09/14 07:46:36;;;;;;;6.05;2.30;;;16.70;99.90;;;;;;4885668;29;20176;-61
2022/09/14 07:49:03;;;;;;;8.35;3.15;;;16.70;99.90;;;;;;4879878;29;20049;-61
2022/09/14 07:51:31;;;;;;;5.88;2.50;;;16.80;99.90;;;;;;4882986;29;20057;-60
2022/09/14 07:53:59;;;;;;;4.35;2.00;;;16.90;99.90;;;;;;4885196;29;20044;-61
2022/09/14 07:56:26;;;;;;;6.22;2.10;;;16.90;99.90;;;;;;4884058;29;20123;-61
2022/09/14 07:58:54;;;;;;;13.00;2.25;;;17.00;99.90;;;;;;4884539;29;20040;-60
2022/09/14 08:01:21;;;;;;;6.50;2.15;;;17.00;99.90;;;;;;4884066;29;20188;-61
2022/09/14 08:03:47;;;;;;;7.82;1.75;;;17.10;99.90;;;;;;4886123;29;20154;-61
2022/09/14 08:06:14;;;;;;;9.30;2.20;;;17.20;99.90;;;;;;4894550;29;20063;-61
2022/09/14 08:08:43;;;;;;;8.63;2.15;;;17.30;99.90;;;;;;4874879;29;20057;-61
2022/09/14 08:11:34;;;;;;;4.60;1.67;;;17.40;99.90;;;;;;4885767;29;20403;-60
2022/09/14 08:14:02;;;;;;;8.75;1.90;;;17.50;99.90;;;;;;4885202;29;20563;-60
2022/09/14 08:16:29;;;;;;;7.85;1.50;;;17.60;99.90;;;;;;4884138;29;20052;-59
2022/09/14 08:18:58;;;;;;;5.07;1.45;;;17.70;99.90;;;;;;4883725;29;20070;-60
2022/09/14 08:21:24;;;;;;;6.88;1.70;;;17.70;99.90;;;;;;4887945;29;20080;-60
2022/09/14 08:23:51;;;;;;;8.75;1.63;;;17.70;99.90;;;;;;4891685;29;20088;-60
2022/09/14 08:26:21;;;;;;;7.97;1.80;;;17.70;99.90;;;;;;4885905;29;20041;-58
2022/09/14 08:28:47;;;;;;;4.78;1.30;;;17.70;99.90;;;;;;4883712;29;20059;-61
2022/09/14 08:31:23;;;;;;;7.22;1.70;;;17.70;99.90;;;;;;4883585;29;20055;-60
2022/09/14 08:33:55;;;;;;;6.90;1.45;;;17.80;99.90;;;;;;4898658;29;20549;-61
2022/09/14 08:36:23;;;;;;;6.55;1.90;;;17.90;99.90;;;;;;4898939;29;20061;-60
2022/09/14 08:38:49;;;;;;;9.90;1.42;;;18.00;99.90;;;;;;4883119;29;20135;-61
2022/09/14 08:41:46;;;;;;;5.88;1.40;;;18.20;99.90;;;;;;4890876;29;20557;-60
2022/09/14 08:44:34;;;;;;;8.52;1.50;;;18.50;99.90;;;;;;4881386;29;20473;-60
2022/09/14 08:47:05;;;;;;;7.93;1.67;;;18.70;99.90;;;;;;4885951;29;20499;-61
2022/09/14 08:49:46;;;;;;;11.98;1.65;;;18.80;99.90;;;;;;4894114;29;20476;-61
2022/09/14 08:52:33;;;;;;;13.38;1.55;;;18.90;99.90;;;;;;4880098;29;20127;-58
2022/09/14 08:55:20;;;;;;;9.18;1.58;;;19.00;99.90;;;;;;4878126;29;20124;-60
2022/09/14 08:58:07;;;;;;;8.68;1.50;;;19.00;99.40;;;;;;4878746;29;20064;-60
2022/09/14 09:01:07;;;;;;;7.53;1.58;;;19.20;99.30;;;;;;4885583;29;20044;-60
2022/09/14 09:03:52;;;;;;;6.07;1.40;;;19.40;99.00;;;;;;4885556;29;20052;-61
2022/09/14 09:06:33;;;;;;;6.72;1.40;;;19.70;98.60;;;;;;4882587;29;20566;-61
2022/09/14 09:09:22;;;;;;;6.75;1.27;;;19.70;98.10;;;;;;4884346;29;20045;-61
2022/09/14 09:11:51;;;;;;;5.53;1.50;;;19.70;97.50;;;;;;4884308;29;20049;-60
2022/09/14 09:14:19;;;;;;;6.97;1.40;;;19.60;97.30;;;;;;4882770;29;20051;-61
2022/09/14 09:16:49;;;;;;;7.10;1.33;;;19.60;97.20;;;;;;4886331;29;20484;-61
2022/09/14 09:19:22;;;;;;;5.35;1.27;;;19.50;97.40;;;;;;4881177;29;20108;-61
2022/09/14 09:21:49;;;;;;;8.40;1.63;;;19.40;97.30;;;;;;4882007;29;20049;-61
2022/09/14 09:24:27;;;;;;;11.85;1.30;;;19.40;97.10;;;;;;4882555;29;20057;-61
2022/09/14 09:26:53;;;;;;;8.65;1.50;;;19.30;97.10;;;;;;4885554;29;20045;-61
2022/09/14 09:29:19;;;;;;;4.85;1.02;;;19.30;97.00;;;;;;4880900;29;20045;-58
2022/09/14 09:31:49;;;;;;;4.63;1.17;;;19.30;96.90;;;;;;4882945;29;20053;-59
2022/09/14 09:34:20;;;;;;;6.70;1.17;;;19.30;96.90;;;;;;4890887;29;20049;-61
2022/09/14 09:36:48;;;;;;;8.90;1.45;;;19.30;97.10;;;;;;4882712;29;20053;-61
2022/09/14 09:39:15;;;;;;;7.05;1.70;;;19.30;97.00;;;;;;4883140;29;20532;-61
2022/09/14 09:41:59;;;;;;;5.78;1.48;;;19.30;97.00;;;;;;4884503;29;20424;-61
2022/09/14 09:44:25;;;;;;;7.95;1.42;;;19.30;96.90;;;;;;4883562;29;20045;-61
2022/09/14 09:46:58;;;;;;;6.75;1.80;;;19.30;96.90;;;;;;4882211;29;20053;-60
2022/09/14 09:49:38;;;;;;;8.05;1.25;;;19.20;96.80;;;;;;4896534;29;20041;-60
2022/09/14 09:52:10;;;;;;;8.10;1.10;;;19.20;96.70;;;;;;4882990;29;20041;-61
2022/09/14 09:54:38;;;;;;;7.13;1.30;;;19.20;96.50;;;;;;4881441;29;20048;-61
2022/09/14 09:57:31;;;;;;;3.83;1.50;;;19.20;96.40;;;;;;4885538;29;20052;-61
2022/09/14 10:00:23;;;;;;;5.97;1.50;;;19.20;96.50;;;;;;4880508;29;20044;-61
2022/09/14 10:02:50;;;;;;;7.10;1.70;;;19.30;96.30;;;;;;4882932;29;20091;-61
2022/09/14 10:05:15;;;;;;;7.05;1.30;;;19.40;96.40;;;;;;4883923;29;20040;-61
2022/09/14 10:08:04;;;;;;;7.85;1.42;;;19.50;96.10;;;;;;4885837;29;20084;-59
2022/09/14 10:10:38;;;;;;;6.85;1.10;;;19.60;95.60;;;;;;4883321;29;20130;-61
2022/09/14 10:13:13;;;;;;;9.05;1.52;;;19.70;95.40;;;;;;4881543;29;20063;-61
2022/09/14 10:15:40;;;;;;;5.90;1.15;;;19.80;94.90;;;;;;4880846;29;20523;-61
2022/09/14 10:18:10;;;;;;;5.57;1.10;;;19.90;94.70;;;;;;4883972;29;20049;-60
2022/09/14 10:20:39;;;;;;;3.63;0.90;;;20.00;94.40;;;;;;4881195;29;20048;-60
2022/09/14 10:23:17;;;;;;;8.63;1.20;;;20.10;94.00;;;;;;4880281;29;20055;-60
2022/09/14 10:25:44;;;;;;;5.57;1.50;;;20.10;93.90;;;;;;4882084;29;20435;-60
2022/09/14 10:28:25;;;;;;;5.82;1.27;;;20.20;93.70;;;;;;4884384;29;20055;-61
2022/09/14 10:31:14;;;;;;;4.68;1.20;;;20.20;93.60;;;;;;4881951;29;20542;-61
2022/09/14 10:33:41;;;;;;;3.90;1.00;;;20.40;94.10;;;;;;4885201;29;20127;-61
2022/09/14 10:36:12;;;;;;;6.75;1.42;;;20.50;93.70;;;;;;4882150;29;20041;-61
2022/09/14 10:38:41;;;;;;;6.07;0.85;;;20.50;93.10;;;;;;4881558;29;20413;-61
2022/09/14 10:41:33;;;;;;;8.55;1.48;;;20.50;92.90;;;;;;4883847;29;20048;-61
2022/09/14 10:44:31;;;;;;;3.85;1.20;;;20.50;92.70;;;;;;4880351;29;20060;-60
2022/09/14 10:47:16;;;;;;;3.97;1.15;;;20.50;92.40;;;;;;4880766;29;20059;-60
2022/09/14 10:50:10;;;;;;;5.05;1.10;;;20.50;93.00;;;;;;4881836;29;20048;-61
2022/09/14 10:52:45;;;;;;;5.53;1.27;;;20.60;92.20;;;;;;4883634;29;20091;-61
2022/09/14 10:55:42;;;;;;;6.20;1.35;;;20.60;92.10;;;;;;4882127;29;20116;-61
2022/09/14 10:58:29;;;;;;;5.28;1.10;;;20.60;92.10;;;;;;4865493;29;20168;-59
2022/09/14 11:01:08;;;;;;;4.45;0.88;;;20.70;92.10;;;;;;4877123;29;20045;-61
2022/09/14 11:03:50;;;;;;;4.68;1.30;;;20.70;91.70;;;;;;4878552;29;20076;-61
2022/09/14 11:06:36;;;;;;;7.88;1.52;;;20.80;91.10;;;;;;4881136;29;20550;-61
2022/09/14 11:09:27;;;;;;;4.78;1.10;;;20.90;91.10;;;;;;4883232;29;20124;-61
2022/09/14 11:12:08;;;;;;;7.18;1.30;;;21.10;91.30;;;;;;4885846;29;20040;-61
2022/09/14 11:15:07;;;;;;;6.20;1.42;;;21.20;90.80;;;;;;4879633;29;20551;-61
2022/09/14 11:18:14;;;;;;;6.63;1.20;;;21.30;90.50;;;;;;4883680;29;20052;-60
2022/09/14 11:20:58;;;;;;;9.65;1.50;;;21.50;90.70;;;;;;4883144;29;20048;-62
2022/09/14 11:23:35;;;;;;;5.45;1.00;;;21.60;90.40;;;;;;4889091;29;20088;-62
2022/09/14 11:26:21;;;;;;;6.97;1.27;;;21.70;89.60;;;;;;4885501;29;20111;-62
2022/09/14 11:29:02;;;;;;;5.43;1.17;;;21.80;90.00;;;;;;4879754;29;20041;-62
2022/09/14 11:31:34;;;;;;;14.43;1.85;;;21.90;89.50;;;;;;4883967;29;20077;-62
2022/09/14 11:34:18;;;;;;;4.22;1.00;;;22.00;88.80;;;;;;4886238;29;20056;-62
2022/09/14 11:36:48;;;;;;;4.50;1.13;;;21.90;87.60;;;;;;4880772;29;20088;-62
2022/09/14 11:39:22;;;;;;;6.65;1.40;;;21.90;87.80;;;;;;4879833;29;20041;-62
2022/09/14 11:41:51;;;;;;;4.78;1.10;;;21.70;87.00;;;;;;4880444;29;20056;-62
2022/09/14 11:44:33;;;;;;;3.58;1.05;;;21.70;86.40;;;;;;4893122;29;20263;-62
2022/09/14 11:47:26;;;;;;;8.52;1.38;;;21.60;85.70;;;;;;4888638;29;20516;-63
2022/09/14 11:50:13;;;;;;;12.05;1.55;;;21.60;87.30;;;;;;4881820;29;20067;-62
2022/09/14 11:52:39;;;;;;;6.15;1.25;;;21.70;86.30;;;;;;4879025;29;20049;-62
2022/09/14 11:55:14;;;;;;;7.95;1.38;;;21.80;85.20;;;;;;4886578;29;20789;-62
2022/09/14 11:57:44;;;;;;;4.25;1.10;;;21.80;86.10;;;;;;4878425;29;20056;-62
2022/09/14 12:00:22;;;;;;;5.55;1.20;;;21.80;85.10;;;;;;4878239;29;20409;-62
2022/09/14 12:02:58;;;;;;;3.70;1.00;;;21.90;84.90;;;;;;4878984;29;20048;-62
2022/09/14 12:05:28;;;;;;;4.40;1.20;;;22.10;85.40;;;;;;4883972;29;20448;-62
2022/09/14 12:08:04;;;;;;;7.53;1.27;;;22.30;84.20;;;;;;4885593;29;20127;-62
2022/09/14 12:10:30;;;;;;;5.35;1.00;;;22.50;83.30;;;;;;4884598;29;20060;-62
2022/09/14 12:13:03;;;;;;;3.90;1.10;;;22.70;82.80;;;;;;4884818;29;20049;-62
2022/09/14 12:15:28;;;;;;;8.60;1.48;;;22.90;82.70;;;;;;4884652;29;20051;-62
2022/09/14 12:18:03;;;;;;;3.42;1.00;;;23.10;82.40;;;;;;4890003;29;20415;-62
2022/09/14 12:20:41;;;;;;;4.72;1.20;;;23.20;81.30;;;;;;4888174;29;20052;-62
2022/09/14 12:23:37;;;;;;;4.00;1.17;;;23.30;81.30;;;;;;4897057;29;20079;-63
2022/09/14 12:26:09;;;;;;;4.97;1.02;;;23.40;79.90;;;;;;4885322;29;20123;-63
2022/09/14 12:28:36;;;;;;;3.95;1.25;;;23.40;79.20;;;;;;4901046;29;20077;-63
2022/09/14 12:31:01;;;;;;;6.00;1.10;;;23.30;80.00;;;;;;4883870;29;20052;-62
2022/09/14 12:33:33;;;;;;;5.18;1.00;;;23.40;79.40;;;;;;4884021;29;20052;-63
2022/09/14 12:36:21;;;;;;;4.00;1.07;;;23.40;77.80;;;;;;4894038;29;20611;-63
2022/09/14 12:39:04;;;;;;;3.80;1.08;;;23.40;77.80;;;;;;4879444;29;20535;-63
2022/09/14 12:41:36;;;;;;;8.15;1.27;;;23.60;77.10;;;;;;4882635;29;20543;-63
2022/09/14 12:44:23;;;;;;;4.28;1.00;;;23.90;77.30;;;;;;4882190;29;20048;-63
2022/09/14 12:46:49;;;;;;;4.70;0.90;;;23.90;75.80;;;;;;4875971;29;20518;-63
2022/09/14 12:49:29;;;;;;;6.55;1.35;;;23.70;75.00;;;;;;4877706;29;20060;-63
2022/09/14 12:51:58;;;;;;;4.82;1.20;;;23.40;74.30;;;;;;4879168;29;20060;-62
2022/09/14 12:54:44;;;;;;;4.60;1.08;;;23.10;75.30;;;;;;4879939;29;20045;-62
2022/09/14 12:57:48;;;;;;;2.47;1.00;;;22.90;76.10;;;;;;4879905;29;20055;-63
2022/09/14 13:00:18;;;;;;;7.35;1.27;;;22.70;76.40;;;;;;4875700;29;20048;-63
2022/09/14 13:03:09;;;;;;;3.33;1.17;;;22.50;76.70;;;;;;4883209;29;20504;-62
2022/09/14 13:05:34;;;;;;;4.60;0.95;;;22.20;77.20;;;;;;4877470;29;20092;-62
2022/09/14 13:08:08;;;;;;;6.78;1.50;;;22.00;77.30;;;;;;4878212;29;20132;-62
2022/09/14 13:10:38;;;;;;;5.30;1.15;;;21.90;77.80;;;;;;4877269;29;20049;-62
2022/09/14 13:13:30;;;;;;;5.55;0.90;;;21.70;77.60;;;;;;4868214;29;20132;-62